KDCAKRDU

Guest
Details From KDCA - Washington National
To KRDU - Raleigh Durham Intl
Flight Number -
Tags generated
Created
Modified
Stats Distance 197 nm / 365 km
Max Altitude 20,900 ft / 6,370 m
Waypoints 3
Social Downloads 1
Likes 0
Share VATSIM

Download

Looking for another format? Having issues loading an existing format? Contact us
Advertisement - Login to hide

Notes

Basic altitude profile: - Ascent Rate: 2500ft/min - Ascent Speed: 250kts - Cruise Altitude: 35000ft - Cruise Speed: 420kts - Descent Rate: 1500ft/min - Descent Speed: 250kts Options: - Use NATs: yes - Use PACOTS: yes - Use low airways: yes - Use high airways: yes

Route

KDCA CARML KRDU

ID Type Via Altitude Latitude Longitude Leg Dist Tot Dist Heading (true) Name
O KDCA APT - 0 ft / 0 m 38.85205˚ -77.03770˚ - 0 nm - Washington National
CARML FIX - 20,900 ft / 6,370 m 37.36182˚ -77.96900˚ 99 nm 99 nm 206° / 206° -
O KRDU APT - 0 ft / 0 m 35.87586˚ -78.78560˚ 97 nm 197 nm 204° / 204° Raleigh Durham Intl

Altitude Profile

Advertisement - Login to hide

Weather


0- 5 10 15 20 25 30 35+ Temperature / ° C

Clouds and Precipitation
Forecast for 2017-12-11 06:00 UTC. Updated an hour ago

Ground ~20,000 ft ~40,000 ft Winds

KDCA

Details ICAO KDCA (DCA)
Name Washington National
Region United States
Timezone America/New_York (UTC-5.0)
Stats Elevation 15 ft / 5 m (AMSL)
Location 38.852054° -77.037695°
Runways 3
Magnetic Variation 10.822° W

METAR

KDCA 110152Z 19007KT 10SM OVC100 03/M02 A3007 RMK AO2 SLP181 T00281022

Decode

TAF

KDCA 102328Z 1100/1206 20004KT P6SM SCT090 FM110200 21004KT P6SM BKN090 FM111000 23004KT P6SM SCT045 FM111500 27006KT P6SM FEW200 FM112000 21004KT P6SM SCT150 FM112300 15005KT P6SM BKN100

Decode

Departure Runways

ID Width Length Bearing (true) Bearing (mag) Surface Threshold Offset Overrun Length
01 151 ft / 46 m 6,882 ft / 2,098 m 355.51° 6.33° Asphalt 0 ft / 0 m 200 ft / 61 m
04 151 ft / 46 m 4,917 ft / 1,499 m 25.47° 36.29° Asphalt 0 ft / 0 m 0 ft / 0 m
15 151 ft / 46 m 5,206 ft / 1,587 m 142.76° 153.58° Asphalt 0 ft / 0 m 174 ft / 53 m
19 151 ft / 46 m 6,882 ft / 2,098 m 175.51° 186.33° Asphalt 0 ft / 0 m 200 ft / 61 m
22 151 ft / 46 m 4,917 ft / 1,499 m 205.47° 216.29° Asphalt 0 ft / 0 m 0 ft / 0 m
33 151 ft / 46 m 5,206 ft / 1,587 m 322.76° 333.58° Asphalt 0 ft / 0 m 98 ft / 30 m

KRDU

Details ICAO KRDU (RDU)
Name Raleigh Durham Intl
Region United States
Timezone America/New_York (UTC-5.0)
Stats Elevation 435 ft / 133 m (AMSL)
Location 35.875863° -78.785598°
Runways 3
Magnetic Variation 9.184° W

METAR

KRDU 110151Z 23005KT 10SM FEW250 M01/M04 A3015 RMK AO2 SLP214 T10061039

Decode

TAF

TAF KRDU 102320Z 1100/1124 22002KT P6SM SKC= TAF KRWI 102320Z 1100/1124 22003KT P6SM SKC

Decode

Destination Runways

ID Width Length Bearing (true) Bearing (mag) Surface Threshold Offset Overrun Length
05L 150 ft / 46 m 10,002 ft / 3,049 m 45.02° 54.20° Concrete 0 ft / 0 m 200 ft / 61 m
05R 150 ft / 46 m 7,503 ft / 2,287 m 45.01° 54.19° Asphalt 0 ft / 0 m 200 ft / 61 m
14 100 ft / 30 m 3,571 ft / 1,088 m 135.28° 144.46° Asphalt 0 ft / 0 m 0 ft / 0 m
23L 150 ft / 46 m 7,503 ft / 2,287 m 225.02° 234.20° Asphalt 0 ft / 0 m 200 ft / 61 m
23R 150 ft / 46 m 10,002 ft / 3,049 m 225.03° 234.21° Concrete 0 ft / 0 m 200 ft / 61 m
32 100 ft / 30 m 3,571 ft / 1,088 m 315.28° 324.46° Asphalt 0 ft / 0 m 0 ft / 0 m

Approach Navaids

Runway Type Ident Frequency Range Bearing (true) Bearing (mag) Slope Elevation
05L Localiser IGKK 109.10 MHz 18 nm / 33 km 45.03° 54.22° - 409 ft / 125 m (AMSL)
05L Glidescope IGKK 109.10 MHz 10 nm / 19 km 45.02° 54.21° 3.00° 435 ft / 133 m (AMSL)
05L DME IGKK 109.10 MHz 18 nm / 33 km - - - 411 ft / 125 m (AMSL)
05R Localiser IRDU 109.50 MHz 18 nm / 33 km 45.02° 54.21° - 417 ft / 127 m (AMSL)
05R Glidescope IRDU 109.50 MHz 10 nm / 19 km 45.01° 54.20° 3.00° 405 ft / 123 m (AMSL)
23L Localiser ILEI 108.50 MHz 18 nm / 33 km 225.00° 234.19° - 435 ft / 133 m (AMSL)
23L Glidescope ILEI 108.50 MHz 10 nm / 19 km 225.01° 234.20° 3.00° 434 ft / 132 m (AMSL)
23R Localiser IDMP 111.70 MHz 18 nm / 33 km 225.02° 234.20° - 359 ft / 109 m (AMSL)
23R Glidescope IDMP 111.70 MHz 10 nm / 19 km 225.03° 234.21° 3.00° 396 ft / 121 m (AMSL)
23R DME IDMP 111.70 MHz 18 nm / 33 km - - - 435 ft / 133 m (AMSL)

Popular Alternatives